createdAt,value
2022-08-26T00:03:39.784Z,15.24
2022-08-26T00:08:43.666Z,15.22
2022-08-26T00:13:49.869Z,15.26
2022-08-26T00:18:53.657Z,15.25
2022-08-26T00:23:56.683Z,15.26
2022-08-26T00:28:59.776Z,15.26
2022-08-26T00:34:03.057Z,15.29
2022-08-26T00:39:07.771Z,15.37
2022-08-26T00:44:14.069Z,15.39
2022-08-26T00:49:21.113Z,15.44
2022-08-26T00:54:26.945Z,15.54
2022-08-26T00:59:33.033Z,15.57
2022-08-26T01:04:37.577Z,15.79
2022-08-26T01:09:40.493Z,15.95
2022-08-26T01:14:43.520Z,15.98
2022-08-26T01:20:07.378Z,16.15
2022-08-26T01:25:12.750Z,16.20
2022-08-26T01:30:15.806Z,16.34
2022-08-26T01:35:19.538Z,16.56
2022-08-26T01:40:26.562Z,16.87
2022-08-26T01:45:31.471Z,17.14
2022-08-26T01:50:36.236Z,17.18
2022-08-26T01:55:42.093Z,17.41
2022-08-26T02:00:45.729Z,17.40
2022-08-26T02:06:03.538Z,17.66
2022-08-26T02:11:07.143Z,17.97
2022-08-26T02:16:10.537Z,17.97
2022-08-26T02:21:13.884Z,17.78
2022-08-26T02:26:20.906Z,17.41
2022-08-26T02:31:24.184Z,17.06
2022-08-26T02:36:28.682Z,17.08
2022-08-26T02:41:31.538Z,17.13
2022-08-26T02:46:36.024Z,17.31
2022-08-26T02:51:40.219Z,18.01
2022-08-26T02:56:46.117Z,18.17
2022-08-26T03:01:50.016Z,18.39
2022-08-26T03:06:53.133Z,18.33
2022-08-26T03:11:58.585Z,18.04
2022-08-26T03:17:01.449Z,18.00
2022-08-26T03:22:05.226Z,17.96
2022-08-26T03:27:07.913Z,18.20
2022-08-26T03:32:10.782Z,18.02
2022-08-26T03:37:13.544Z,17.99
2022-08-26T03:42:16.685Z,17.97
2022-08-26T03:47:20.467Z,17.75
2022-08-26T03:52:23.232Z,17.37
2022-08-26T03:57:26.215Z,17.19
2022-08-26T04:02:30.741Z,17.32
2022-08-26T04:07:33.759Z,17.70
2022-08-26T04:12:37.746Z,17.95
2022-08-26T04:17:41.005Z,17.84
2022-08-26T04:22:45.862Z,17.97
2022-08-26T04:27:48.737Z,18.51
2022-08-26T04:32:53.333Z,18.21
2022-08-26T04:37:56.131Z,17.76
2022-08-26T04:42:58.948Z,17.60
2022-08-26T04:48:01.817Z,17.97
2022-08-26T04:53:07.188Z,18.55
2022-08-26T04:58:10.616Z,19.08
2022-08-26T05:03:14.896Z,19.00
2022-08-26T05:08:20.793Z,18.99
2022-08-26T05:13:26.583Z,19.25
2022-08-26T05:18:30.674Z,19.05
2022-08-26T05:23:36.268Z,18.60
2022-08-26T05:28:40.020Z,18.46
2022-08-26T05:33:42.943Z,18.58
2022-08-26T05:38:46.496Z,18.92
2022-08-26T05:43:49.707Z,18.98
2022-08-26T05:48:53.258Z,18.93
2022-08-26T05:53:57.029Z,19.16
2022-08-26T05:59:02.696Z,18.96
2022-08-26T06:04:08.310Z,18.78
2022-08-26T06:09:11.722Z,18.74
2022-08-26T06:14:14.464Z,18.82
2022-08-26T06:19:17.815Z,19.42
2022-08-26T06:24:39.047Z,19.86
2022-08-26T06:29:43.013Z,19.47
2022-08-26T06:34:45.904Z,18.78
2022-08-26T06:39:48.862Z,18.57
2022-08-26T06:44:54.008Z,18.50
2022-08-26T06:49:56.777Z,18.62
2022-08-26T06:54:59.660Z,18.75
2022-08-26T07:00:05.995Z,18.88
2022-08-26T07:05:09.671Z,18.95
2022-08-26T07:10:12.598Z,18.95
2022-08-26T07:15:15.654Z,19.02
2022-08-26T07:20:18.886Z,19.35
2022-08-26T07:25:22.175Z,19.54
2022-08-26T07:30:26.008Z,19.43
2022-08-26T07:35:28.893Z,19.16
2022-08-26T07:40:32.529Z,19.11
2022-08-26T07:45:36.607Z,19.09
2022-08-26T07:50:49.505Z,19.13
2022-08-26T07:55:53.440Z,19.02
2022-08-26T08:00:56.289Z,18.73
2022-08-26T08:05:59.029Z,18.77
2022-08-26T08:11:02.323Z,19.03
2022-08-26T08:16:06.098Z,19.09
2022-08-26T08:21:21.826Z,19.27
2022-08-26T08:26:26.993Z,19.28
2022-08-26T08:31:56.940Z,19.25
2022-08-26T08:36:55.684Z,19.15
2022-08-26T08:42:06.364Z,19.20
2022-08-26T08:47:34.589Z,19.23
2022-08-26T08:52:37.761Z,19.34
2022-08-26T08:57:46.522Z,19.31
2022-08-26T09:02:59.333Z,19.28
2022-08-26T09:08:06.615Z,19.25
2022-08-26T09:13:16.793Z,19.24
2022-08-26T09:18:38.048Z,19.40
2022-08-26T09:23:43.669Z,19.47
2022-08-26T09:29:01.391Z,19.38
2022-08-26T09:34:23.471Z,19.34
2022-08-26T09:39:34.580Z,19.34
2022-08-26T09:44:58.802Z,19.36
2022-08-26T09:50:20.932Z,19.37
2022-08-26T09:55:24.219Z,19.24
2022-08-26T10:00:35.170Z,19.12
2022-08-26T10:05:48.008Z,19.37
2022-08-26T10:10:53.100Z,19.48
2022-08-26T10:15:58.532Z,19.44
2022-08-26T10:21:11.775Z,19.42
2022-08-26T10:26:20.191Z,19.48
2022-08-26T10:31:41.930Z,19.26
2022-08-26T10:37:13.962Z,19.11
2022-08-26T10:42:43.039Z,19.07
2022-08-26T10:47:51.153Z,19.10
2022-08-26T10:53:09.695Z,19.06
2022-08-26T10:58:26.506Z,19.00
2022-08-26T11:03:58.113Z,18.96
2022-08-26T11:09:03.390Z,18.77
2022-08-26T11:14:07.886Z,18.70
2022-08-26T11:19:13.329Z,18.67
2022-08-26T11:24:34.667Z,18.67
2022-08-26T11:30:22.043Z,18.63
2022-08-26T11:35:26.848Z,18.58
2022-08-26T11:40:33.713Z,18.52
2022-08-26T11:45:41.009Z,18.45
2022-08-26T11:51:07.078Z,18.38
2022-08-26T11:56:24.974Z,18.29
2022-08-26T12:01:36.208Z,18.26
2022-08-26T12:06:44.972Z,18.14
2022-08-26T12:11:48.064Z,18.11
2022-08-26T12:16:51.634Z,18.03
2022-08-26T12:22:20.968Z,17.97
2022-08-26T12:27:26.886Z,17.80
2022-08-26T12:32:34.111Z,17.64
2022-08-26T12:37:40.843Z,17.58
2022-08-26T12:42:47.216Z,17.77
2022-08-26T12:47:55.644Z,17.38
2022-08-26T12:53:01.025Z,17.10
2022-08-26T12:58:25.108Z,17.18
2022-08-26T13:03:29.212Z,17.17
2022-08-26T13:08:31.954Z,16.91
2022-08-26T13:13:35.505Z,16.53
2022-08-26T13:18:38.362Z,16.10
2022-08-26T13:23:42.589Z,15.66
2022-08-26T13:28:45.461Z,15.24
2022-08-26T13:34:04.238Z,14.89
2022-08-26T13:39:07.166Z,14.61
2022-08-26T13:44:10.457Z,14.35
2022-08-26T13:49:13.306Z,14.17
2022-08-26T13:54:16.289Z,13.92
2022-08-26T13:59:19.834Z,13.84
2022-08-26T14:04:27.298Z,13.71
2022-08-26T14:09:30.364Z,13.64
2022-08-26T14:14:33.289Z,13.54
2022-08-26T14:19:36.201Z,13.33
2022-08-26T14:24:38.928Z,13.22
2022-08-26T14:29:42.129Z,13.09
2022-08-26T14:34:44.971Z,13.04
2022-08-26T14:39:47.790Z,12.83
2022-08-26T14:44:54.713Z,12.83
2022-08-26T14:49:57.800Z,12.68
2022-08-26T14:55:00.502Z,12.66
2022-08-26T15:00:03.675Z,12.62
2022-08-26T15:05:08.893Z,12.55
2022-08-26T15:10:14.436Z,12.80
2022-08-26T15:15:18.941Z,12.82
2022-08-26T15:20:21.745Z,12.74
2022-08-26T15:25:24.864Z,12.76
2022-08-26T15:30:28.176Z,12.70
2022-08-26T15:35:32.987Z,12.71
2022-08-26T15:40:41.291Z,12.95
2022-08-26T15:45:44.029Z,12.85
2022-08-26T15:50:59.298Z,12.85
2022-08-26T15:56:02.059Z,12.89
2022-08-26T16:01:04.981Z,12.87
2022-08-26T16:06:08.592Z,12.85
2022-08-26T16:11:14.245Z,12.83
2022-08-26T16:16:17.403Z,12.82
2022-08-26T16:21:23.347Z,12.82
2022-08-26T16:26:30.132Z,12.87
2022-08-26T16:31:33.200Z,12.95
2022-08-26T16:36:37.945Z,13.12
2022-08-26T16:41:40.848Z,13.20
2022-08-26T16:46:43.556Z,12.86
2022-08-26T16:51:50.116Z,12.85
2022-08-26T16:56:52.823Z,12.80
2022-08-26T17:01:55.639Z,12.97
2022-08-26T17:06:59.491Z,12.82
2022-08-26T17:12:02.270Z,12.68
2022-08-26T17:17:06.463Z,12.52
2022-08-26T17:22:09.969Z,12.41
2022-08-26T17:27:12.867Z,12.39
2022-08-26T17:32:15.784Z,12.24
2022-08-26T17:37:18.543Z,12.25
2022-08-26T17:42:21.370Z,12.31
2022-08-26T17:47:34.698Z,12.15
2022-08-26T17:52:38.336Z,12.46
2022-08-26T17:57:42.370Z,12.54
2022-08-26T18:02:45.707Z,12.67
2022-08-26T18:07:48.916Z,12.91
2022-08-26T18:12:52.057Z,13.00
2022-08-26T18:17:54.682Z,13.05
2022-08-26T18:22:57.419Z,12.99
2022-08-26T18:28:00.753Z,12.87
2022-08-26T18:33:03.681Z,12.84
2022-08-26T18:38:11.014Z,12.89
2022-08-26T18:43:14.532Z,12.72
2022-08-26T18:48:17.238Z,12.43
2022-08-26T18:53:20.753Z,12.10
2022-08-26T18:58:23.858Z,11.79
2022-08-26T19:03:29.037Z,11.62
2022-08-26T19:08:31.966Z,11.73
2022-08-26T19:13:35.890Z,11.88
2022-08-26T19:18:38.657Z,12.06
2022-08-26T19:23:41.530Z,12.30
2022-08-26T19:28:44.407Z,12.45
2022-08-26T19:33:47.187Z,12.58
2022-08-26T19:38:50.513Z,12.60
2022-08-26T19:43:53.387Z,12.50
2022-08-26T19:49:01.356Z,12.31
2022-08-26T19:54:04.658Z,12.20
2022-08-26T19:59:07.500Z,12.27
2022-08-26T20:04:10.315Z,12.25
2022-08-26T20:09:13.206Z,12.43
2022-08-26T20:14:18.207Z,12.47
2022-08-26T20:19:41.629Z,12.50
2022-08-26T20:24:45.389Z,12.52
2022-08-26T20:29:48.303Z,12.48
2022-08-26T20:34:51.495Z,12.44
2022-08-26T20:39:55.668Z,12.33
2022-08-26T20:44:58.731Z,12.42
2022-08-26T20:50:02.857Z,12.39
2022-08-26T20:55:06.490Z,12.39
2022-08-26T21:00:12.564Z,12.38
2022-08-26T21:05:19.019Z,12.34
2022-08-26T21:10:21.907Z,12.37
2022-08-26T21:15:26.461Z,12.32
2022-08-26T21:20:29.368Z,12.50
2022-08-26T21:25:32.229Z,12.58
2022-08-26T21:30:38.043Z,12.63
2022-08-26T21:35:41.290Z,12.64
2022-08-26T21:40:44.553Z,12.48
2022-08-26T21:45:47.424Z,12.56
2022-08-26T21:50:50.733Z,12.53
2022-08-26T21:55:53.560Z,12.51
2022-08-26T22:00:56.528Z,12.49
2022-08-26T22:06:01.762Z,12.46
2022-08-26T22:11:05.235Z,12.35
2022-08-26T22:16:08.773Z,12.45
2022-08-26T22:21:20.927Z,12.36
2022-08-26T22:26:26.062Z,12.14
2022-08-26T22:31:37.147Z,11.98
2022-08-26T22:36:43.925Z,11.98
2022-08-26T22:41:48.942Z,11.72
2022-08-26T22:46:54.580Z,11.90
2022-08-26T22:51:57.346Z,11.82
2022-08-26T22:57:00.085Z,11.89
2022-08-26T23:02:02.985Z,11.86
2022-08-26T23:07:06.365Z,11.90
2022-08-26T23:12:09.237Z,11.95
2022-08-26T23:17:12.640Z,11.96
2022-08-26T23:22:17.380Z,12.06
2022-08-26T23:27:20.232Z,12.08
2022-08-26T23:32:23.057Z,12.12
2022-08-26T23:37:27.621Z,12.07
2022-08-26T23:42:30.912Z,12.08
2022-08-26T23:47:34.002Z,12.07
2022-08-26T23:52:55.371Z,12.07
2022-08-26T23:57:58.535Z,12.06
